Time;durP1;ratioP1;P1;durP2;ratioP2;P2;SDS_P1;SDS_P2;PMS_P1;PMS_P2;Temp;Humidity;BMP_temperature;BMP_pressure;BME280_temperature;BME280_humidity;BME280_pressure;Samples;Min_cycle;Max_cycle;Signal;HPM_P1;HPM_P2
2021/12/03 00:01:16;;;;;;;2.70;1.90;;;27.90;99.90;;;;;;4996766;28;20062;-64
2021/12/03 00:03:44;;;;;;;8.02;2.00;;;27.70;99.90;;;;;;4996898;28;20486;-65
2021/12/03 00:06:13;;;;;;;2.90;2.08;;;27.50;99.90;;;;;;4995722;28;20395;-65
2021/12/03 00:08:42;;;;;;;3.10;1.67;;;27.50;99.90;;;;;;4996281;28;20026;-65
2021/12/03 00:11:11;;;;;;;3.65;1.50;;;27.70;99.90;;;;;;4996335;28;20031;-65
2021/12/03 00:13:39;;;;;;;3.78;1.85;;;27.80;99.90;;;;;;4996204;28;20022;-65
2021/12/03 00:16:08;;;;;;;3.55;1.75;;;27.70;99.90;;;;;;4996238;28;20379;-65
2021/12/03 00:18:36;;;;;;;3.25;1.67;;;27.70;99.90;;;;;;4996346;28;20022;-65
2021/12/03 00:21:07;;;;;;;4.22;2.13;;;27.60;99.90;;;;;;4996057;28;20022;-66
2021/12/03 00:23:36;;;;;;;3.80;1.65;;;27.60;99.90;;;;;;4994091;28;20109;-65
2021/12/03 00:26:05;;;;;;;2.78;1.55;;;27.60;99.90;;;;;;4995113;28;20019;-64
2021/12/03 00:28:33;;;;;;;4.20;1.70;;;27.60;99.90;;;;;;4993876;28;20049;-64
2021/12/03 00:31:02;;;;;;;3.03;1.90;;;27.80;99.90;;;;;;4995993;28;20196;-64
2021/12/03 00:33:31;;;;;;;2.70;1.65;;;28.10;99.90;;;;;;4995888;28;20011;-64
2021/12/03 00:36:04;;;;;;;10.00;1.95;;;28.20;99.90;;;;;;4995730;28;20026;-64
2021/12/03 00:38:39;;;;;;;3.72;2.15;;;28.10;99.90;;;;;;4993286;28;20022;-63
2021/12/03 00:41:09;;;;;;;7.18;2.42;;;27.90;99.90;;;;;;4995571;28;20037;-64
2021/12/03 00:43:41;;;;;;;5.15;2.00;;;28.10;99.90;;;;;;4995728;28;20030;-64
2021/12/03 00:46:11;;;;;;;4.57;1.90;;;28.00;99.90;;;;;;4995478;28;20050;-65
2021/12/03 00:48:39;;;;;;;2.63;1.90;;;28.10;99.90;;;;;;4995455;28;20019;-64
2021/12/03 00:51:08;;;;;;;6.57;2.10;;;28.40;99.90;;;;;;4995361;28;20506;-65
2021/12/03 00:53:38;;;;;;;4.07;2.20;;;28.10;99.90;;;;;;4995685;28;20347;-65
2021/12/03 00:56:07;;;;;;;5.85;2.75;;;27.50;99.90;;;;;;4996100;28;20472;-64
2021/12/03 00:58:35;;;;;;;8.57;2.42;;;27.00;99.90;;;;;;4995848;28;20054;-65
2021/12/03 01:01:05;;;;;;;5.07;2.13;;;26.60;99.90;;;;;;4995686;28;20050;-65
2021/12/03 01:03:34;;;;;;;5.97;2.78;;;26.10;99.90;;;;;;4996138;28;20023;-65
2021/12/03 01:06:02;;;;;;;4.40;2.00;;;25.70;99.90;;;;;;4995825;28;20475;-65
2021/12/03 01:08:35;;;;;;;4.22;2.38;;;25.70;99.90;;;;;;4995773;28;20033;-65
2021/12/03 01:11:05;;;;;;;4.97;1.88;;;25.80;99.90;;;;;;4995825;28;20076;-65
2021/12/03 01:13:33;;;;;;;4.82;1.65;;;25.60;99.90;;;;;;4995948;28;20061;-64
2021/12/03 01:16:02;;;;;;;4.93;1.40;;;24.90;99.90;;;;;;4995499;28;20160;-64
2021/12/03 01:18:30;;;;;;;5.68;1.85;;;24.60;99.90;;;;;;4995271;28;20038;-64
2021/12/03 01:20:58;;;;;;;6.05;1.45;;;24.60;99.90;;;;;;4994706;28;20037;-64
2021/12/03 01:23:26;;;;;;;4.38;1.60;;;24.30;99.90;;;;;;4995119;28;20022;-64
2021/12/03 01:25:53;;;;;;;3.83;1.45;;;24.70;99.90;;;;;;4995007;28;21206;-64
2021/12/03 01:28:21;;;;;;;4.75;1.60;;;24.60;99.90;;;;;;4991973;28;20435;-65
2021/12/03 01:30:49;;;;;;;4.10;1.50;;;24.50;99.90;;;;;;4994636;28;20479;-65
2021/12/03 01:33:17;;;;;;;7.30;1.80;;;24.60;99.90;;;;;;4994705;28;20033;-65
2021/12/03 01:35:45;;;;;;;10.45;2.70;;;24.70;99.90;;;;;;4994688;28;20093;-64
2021/12/03 01:38:13;;;;;;;7.95;1.73;;;24.50;99.90;;;;;;4994628;28;20048;-65
2021/12/03 01:40:41;;;;;;;8.38;1.83;;;24.60;99.90;;;;;;4991860;28;20026;-65
2021/12/03 01:43:14;;;;;;;8.43;3.00;;;24.50;99.90;;;;;;4994833;28;20033;-65
2021/12/03 01:45:42;;;;;;;16.40;2.40;;;24.60;99.90;;;;;;4989019;28;20129;-65
2021/12/03 01:48:10;;;;;;;6.75;2.33;;;24.60;99.90;;;;;;4993089;28;20019;-64
2021/12/03 01:50:41;;;;;;;7.32;3.17;;;24.70;99.90;;;;;;4990261;28;20112;-65
2021/12/03 01:53:11;;;;;;;10.48;3.17;;;24.40;99.90;;;;;;4992830;28;20484;-65
2021/12/03 01:55:40;;;;;;;16.80;3.85;;;24.10;99.90;;;;;;4992018;28;20145;-64
2021/12/03 01:58:08;;;;;;;7.70;3.85;;;24.30;99.90;;;;;;4993860;28;20030;-64
2021/12/03 02:00:53;;;;;;;14.50;4.10;;;24.30;99.90;;;;;;4993386;28;20046;-65
2021/12/03 02:03:29;;;;;;;18.92;4.65;;;24.10;99.90;;;;;;4992284;28;20082;-65
2021/12/03 02:05:57;;;;;;;12.20;4.18;;;23.70;99.90;;;;;;4991424;28;20386;-64
2021/12/03 02:08:25;;;;;;;10.45;4.97;;;23.80;99.90;;;;;;4988562;28;20030;-64
2021/12/03 02:10:54;;;;;;;17.48;4.45;;;23.90;99.90;;;;;;4981244;28;20129;-64
2021/12/03 02:13:22;;;;;;;12.98;4.47;;;24.10;99.90;;;;;;4991604;28;20073;-64
2021/12/03 02:15:49;;;;;;;14.93;5.13;;;24.00;99.90;;;;;;4991706;28;20031;-64
2021/12/03 02:18:18;;;;;;;13.90;4.65;;;23.80;99.90;;;;;;4992405;28;20053;-65
2021/12/03 02:20:53;;;;;;;12.88;5.40;;;23.10;99.90;;;;;;4993377;28;20483;-65
2021/12/03 02:23:22;;;;;;;12.43;5.45;;;23.20;99.90;;;;;;4994056;28;20034;-65
2021/12/03 02:25:51;;;;;;;9.07;5.07;;;23.40;99.90;;;;;;4989358;28;20598;-64
2021/12/03 02:28:22;;;;;;;13.85;5.40;;;23.50;99.90;;;;;;4993079;28;20547;-64
2021/12/03 02:30:50;;;;;;;17.02;6.47;;;23.50;99.90;;;;;;4992716;28;20035;-65
2021/12/03 02:33:18;;;;;;;18.73;5.53;;;23.30;99.90;;;;;;4993099;28;20073;-64
2021/12/03 02:35:46;;;;;;;15.57;5.78;;;23.20;99.90;;;;;;4992440;28;20530;-65
2021/12/03 02:38:17;;;;;;;12.55;5.95;;;23.60;99.90;;;;;;4987143;28;20105;-63
2021/12/03 02:40:45;;;;;;;21.00;6.75;;;23.60;99.90;;;;;;4975626;28;20023;-64
2021/12/03 02:43:14;;;;;;;13.20;6.38;;;22.90;99.90;;;;;;4992592;28;20038;-65
2021/12/03 02:45:42;;;;;;;17.05;6.88;;;22.80;99.90;;;;;;4992702;28;20027;-65
2021/12/03 02:48:10;;;;;;;11.75;6.63;;;22.70;99.90;;;;;;4992113;28;20038;-65
2021/12/03 02:50:38;;;;;;;16.67;7.03;;;22.50;99.90;;;;;;4992637;28;20069;-64
2021/12/03 02:53:06;;;;;;;15.07;6.60;;;22.10;99.90;;;;;;4992567;28;20022;-63
2021/12/03 02:55:34;;;;;;;16.33;6.90;;;22.00;99.90;;;;;;4992494;28;20038;-64
2021/12/03 02:58:02;;;;;;;12.25;6.57;;;22.00;99.90;;;;;;4992713;28;20022;-65
2021/12/03 03:00:31;;;;;;;15.38;7.53;;;21.80;99.90;;;;;;4992366;28;20034;-63
2021/12/03 03:02:59;;;;;;;13.38;6.70;;;21.80;99.90;;;;;;4992091;28;20041;-63
2021/12/03 03:05:28;;;;;;;15.23;8.70;;;21.80;99.90;;;;;;4992644;28;20026;-64
2021/12/03 03:07:56;;;;;;;15.13;8.00;;;21.80;99.90;;;;;;4992245;28;20026;-65
2021/12/03 03:10:30;;;;;;;16.70;8.45;;;21.70;99.90;;;;;;4991985;28;20165;-65
2021/12/03 03:12:59;;;;;;;19.15;9.82;;;21.60;99.90;;;;;;4992473;28;20023;-64
2021/12/03 03:15:27;;;;;;;15.73;9.45;;;21.40;99.90;;;;;;4992582;28;20026;-64
2021/12/03 03:17:55;;;;;;;19.95;10.40;;;21.50;99.90;;;;;;4991552;28;20027;-65
2021/12/03 03:20:23;;;;;;;16.40;9.65;;;21.30;99.90;;;;;;4991963;28;20038;-65
2021/12/03 03:22:51;;;;;;;19.08;10.32;;;21.20;99.90;;;;;;4991485;28;20030;-65
2021/12/03 03:25:20;;;;;;;19.15;10.45;;;21.10;99.90;;;;;;4991853;28;20038;-65
2021/12/03 03:27:48;;;;;;;17.50;11.02;;;21.10;99.90;;;;;;4992506;28;20026;-63
2021/12/03 03:30:18;;;;;;;22.33;10.07;;;21.30;99.90;;;;;;4990254;28;20042;-64
2021/12/03 03:32:48;;;;;;;18.38;10.57;;;21.80;99.90;;;;;;4990121;28;20033;-65
2021/12/03 03:35:16;;;;;;;28.63;9.48;;;22.20;99.90;;;;;;4989244;28;20030;-64
2021/12/03 03:37:44;;;;;;;18.38;9.60;;;22.50;99.90;;;;;;4981389;28;20082;-65
2021/12/03 03:40:12;;;;;;;19.75;10.23;;;22.60;99.90;;;;;;4991729;28;20479;-64
2021/12/03 03:42:40;;;;;;;18.58;11.35;;;22.80;99.90;;;;;;4992039;28;20034;-66
2021/12/03 03:45:12;;;;;;;20.77;11.15;;;22.60;99.90;;;;;;4992371;28;20031;-63
2021/12/03 03:47:40;;;;;;;20.17;10.77;;;22.40;99.90;;;;;;4993402;28;20025;-66
2021/12/03 03:50:09;;;;;;;22.00;10.57;;;22.20;99.90;;;;;;4993305;28;20368;-63
2021/12/03 03:52:39;;;;;;;21.35;10.95;;;22.20;99.90;;;;;;4993484;28;20022;-65
2021/12/03 03:55:09;;;;;;;20.55;12.18;;;21.90;99.90;;;;;;4993406;28;20030;-64
2021/12/03 03:57:37;;;;;;;30.25;12.80;;;21.60;99.90;;;;;;4993387;28;20038;-64
2021/12/03 04:00:08;;;;;;;26.85;11.73;;;21.30;99.90;;;;;;4993347;28;20140;-65
2021/12/03 04:02:36;;;;;;;25.13;13.38;;;21.20;99.90;;;;;;4995624;28;20562;-64
2021/12/03 04:05:04;;;;;;;27.67;12.52;;;21.10;99.90;;;;;;4995254;28;20038;-64
2021/12/03 04:07:32;;;;;;;28.60;12.38;;;21.10;99.90;;;;;;4996871;28;20033;-64
2021/12/03 04:09:59;;;;;;;29.38;11.48;;;21.00;99.90;;;;;;4996788;28;20081;-64
2021/12/03 04:12:27;;;;;;;25.63;12.80;;;20.70;99.90;;;;;;4996725;28;20411;-65
2021/12/03 04:14:55;;;;;;;25.30;12.50;;;20.90;99.90;;;;;;4996454;28;20515;-64
2021/12/03 04:17:22;;;;;;;25.45;12.23;;;21.10;99.90;;;;;;4995822;28;20026;-64
2021/12/03 04:19:50;;;;;;;30.70;12.90;;;21.30;99.90;;;;;;4996666;28;20113;-64
2021/12/03 04:22:23;;;;;;;26.67;13.05;;;21.60;99.90;;;;;;4996547;28;20038;-65
2021/12/03 04:24:52;;;;;;;31.20;12.07;;;21.30;99.90;;;;;;4996608;28;20360;-64
2021/12/03 04:27:20;;;;;;;25.83;12.23;;;21.10;99.90;;;;;;4996492;28;20479;-65
2021/12/03 04:29:48;;;;;;;28.05;11.25;;;21.30;99.90;;;;;;4996628;28;20038;-65
2021/12/03 04:32:17;;;;;;;37.10;12.77;;;21.30;99.90;;;;;;4996456;28;20034;-64
2021/12/03 04:34:45;;;;;;;38.33;10.90;;;21.10;99.90;;;;;;4996422;28;20042;-65
2021/12/03 04:37:13;;;;;;;31.23;12.20;;;21.10;99.90;;;;;;4996619;28;20030;-65
2021/12/03 04:39:40;;;;;;;31.90;12.55;;;21.00;99.90;;;;;;4996426;28;20049;-64
2021/12/03 04:42:08;;;;;;;35.28;11.65;;;20.90;99.90;;;;;;4996421;28;20030;-66
2021/12/03 04:44:37;;;;;;;27.27;12.07;;;20.70;99.90;;;;;;4996193;28;20387;-64
2021/12/03 04:47:06;;;;;;;27.23;12.43;;;20.40;99.90;;;;;;4996184;28;20019;-64
2021/12/03 04:49:34;;;;;;;29.27;12.23;;;20.20;99.90;;;;;;4996189;28;20390;-63
2021/12/03 04:52:03;;;;;;;47.35;14.15;;;20.10;99.90;;;;;;4996354;28;20430;-64
2021/12/03 04:54:31;;;;;;;33.22;12.85;;;19.90;99.90;;;;;;4995910;28;20026;-64
2021/12/03 04:56:59;;;;;;;43.92;12.77;;;19.70;99.90;;;;;;4996136;28;20125;-64
2021/12/03 04:59:27;;;;;;;25.25;12.30;;;19.50;99.90;;;;;;4995952;28;20022;-64
2021/12/03 05:01:57;;;;;;;37.20;13.90;;;19.40;99.90;;;;;;4995739;28;20046;-63
2021/12/03 05:04:25;;;;;;;30.70;12.75;;;19.20;99.90;;;;;;4996010;28;20459;-64
2021/12/03 05:07:05;;;;;;;37.65;13.35;;;19.00;99.90;;;;;;4995746;28;20027;-64
2021/12/03 05:09:33;;;;;;;33.67;12.35;;;18.90;99.90;;;;;;4995817;28;20038;-64
2021/12/03 05:12:01;;;;;;;29.95;12.30;;;18.90;99.90;;;;;;4995361;28;20098;-65
2021/12/03 05:14:30;;;;;;;32.72;13.75;;;18.90;99.90;;;;;;4988728;28;20144;-63
2021/12/03 05:16:58;;;;;;;39.63;12.43;;;18.80;99.90;;;;;;4990329;28;20037;-63
2021/12/03 05:19:26;;;;;;;40.92;14.15;;;18.80;99.90;;;;;;4994134;28;20030;-64
2021/12/03 05:21:53;;;;;;;23.75;10.73;;;18.80;99.90;;;;;;4991002;28;20042;-63
2021/12/03 05:24:21;;;;;;;31.92;12.93;;;18.80;99.90;;;;;;4993056;28;20026;-64
2021/12/03 05:26:49;;;;;;;39.15;12.77;;;18.80;99.90;;;;;;4994178;28;20531;-63
2021/12/03 05:29:18;;;;;;;26.92;11.77;;;18.70;99.90;;;;;;4994412;28;20458;-64
2021/12/03 05:31:45;;;;;;;31.90;12.15;;;18.80;99.90;;;;;;4992564;28;20395;-64
2021/12/03 05:34:15;;;;;;;27.67;12.00;;;18.80;99.90;;;;;;4995127;28;20033;-64
2021/12/03 05:36:46;;;;;;;34.83;12.65;;;18.80;99.90;;;;;;4995281;28;20053;-64
2021/12/03 05:39:14;;;;;;;40.78;13.52;;;18.80;99.90;;;;;;4995116;28;20402;-62
2021/12/03 05:41:42;;;;;;;30.45;12.52;;;18.90;99.90;;;;;;4994716;28;20407;-64
2021/12/03 05:44:10;;;;;;;27.27;11.88;;;19.00;99.90;;;;;;4994854;28;20037;-63
2021/12/03 05:46:37;;;;;;;29.17;11.98;;;19.00;99.90;;;;;;4995031;28;20030;-65
2021/12/03 05:49:06;;;;;;;27.30;11.25;;;19.00;99.90;;;;;;4993866;28;20035;-63
2021/12/03 05:51:34;;;;;;;34.80;11.98;;;19.00;99.90;;;;;;4993738;28;20397;-64
2021/12/03 05:54:02;;;;;;;26.77;12.20;;;19.00;99.90;;;;;;4994211;28;20018;-65
2021/12/03 05:56:30;;;;;;;36.50;12.93;;;19.00;99.90;;;;;;4994650;28;20026;-64
2021/12/03 05:58:58;;;;;;;25.30;12.15;;;19.00;99.90;;;;;;4994672;28;20047;-65
2021/12/03 06:01:25;;;;;;;28.77;12.00;;;19.00;99.90;;;;;;4994574;28;20097;-63
2021/12/03 06:03:53;;;;;;;27.20;11.43;;;18.90;99.90;;;;;;4994191;28;20505;-65
2021/12/03 06:06:21;;;;;;;23.77;12.05;;;19.00;99.90;;;;;;4994586;28;20494;-64
2021/12/03 06:08:49;;;;;;;30.35;11.57;;;19.10;99.90;;;;;;4995081;28;20036;-64
2021/12/03 06:11:17;;;;;;;26.13;10.55;;;19.10;99.90;;;;;;4994544;28;20049;-65
2021/12/03 06:13:45;;;;;;;32.22;11.05;;;19.10;99.90;;;;;;4993350;28;20026;-64
2021/12/03 06:16:13;;;;;;;30.63;11.43;;;19.10;99.90;;;;;;4993819;28;20475;-66
2021/12/03 06:18:41;;;;;;;23.48;10.63;;;19.10;99.90;;;;;;4993796;28;20431;-64
2021/12/03 06:21:11;;;;;;;32.63;11.57;;;19.10;99.90;;;;;;4993780;28;20045;-65
2021/12/03 06:23:40;;;;;;;26.10;9.07;;;19.10;99.90;;;;;;4987198;28;20084;-66
2021/12/03 06:26:09;;;;;;;35.17;11.82;;;19.10;99.90;;;;;;4992434;28;20018;-66
2021/12/03 06:28:39;;;;;;;22.55;9.98;;;19.10;99.90;;;;;;4991920;28;20570;-65
2021/12/03 06:31:07;;;;;;;26.42;10.85;;;19.10;99.90;;;;;;4992310;28;20510;-66
2021/12/03 06:33:35;;;;;;;32.67;10.75;;;19.10;99.90;;;;;;4991974;28;20073;-66
2021/12/03 06:36:03;;;;;;;27.83;10.85;;;19.20;99.90;;;;;;4993583;28;20372;-65
2021/12/03 06:38:31;;;;;;;34.25;11.68;;;19.10;99.90;;;;;;4993490;28;20383;-65
2021/12/03 06:40:59;;;;;;;22.83;9.30;;;19.10;99.90;;;;;;4993571;28;20023;-65
2021/12/03 06:43:27;;;;;;;30.42;9.45;;;19.20;99.90;;;;;;4990740;28;20434;-65
2021/12/03 06:45:54;;;;;;;26.08;9.52;;;19.20;99.90;;;;;;4993184;28;20110;-65
2021/12/03 06:48:22;;;;;;;22.35;9.50;;;19.20;99.90;;;;;;4992606;28;20027;-65
2021/12/03 06:50:51;;;;;;;21.40;9.10;;;19.10;99.90;;;;;;4992865;28;20038;-65
2021/12/03 06:53:26;;;;;;;19.60;10.02;;;19.10;99.90;;;;;;4993222;28;20430;-65
2021/12/03 06:56:04;;;;;;;31.27;9.15;;;19.00;99.90;;;;;;4989188;28;20505;-66
2021/12/03 06:58:32;;;;;;;35.65;9.82;;;19.00;99.90;;;;;;4992756;28;20434;-65
2021/12/03 07:00:59;;;;;;;21.23;8.52;;;18.90;99.90;;;;;;4992154;28;20553;-63
2021/12/03 07:03:27;;;;;;;24.23;7.90;;;19.00;99.90;;;;;;4990638;28;20039;-64
2021/12/03 07:05:55;;;;;;;24.45;8.40;;;18.90;99.90;;;;;;4993286;28;20022;-64
2021/12/03 07:08:23;;;;;;;24.42;8.18;;;18.90;99.90;;;;;;4993190;28;20027;-65
2021/12/03 07:10:50;;;;;;;24.40;8.40;;;18.90;99.90;;;;;;4992834;28;20117;-66
2021/12/03 07:13:18;;;;;;;28.00;9.25;;;18.80;99.90;;;;;;4993066;28;20073;-65
2021/12/03 07:15:46;;;;;;;34.83;9.82;;;18.80;99.90;;;;;;4993273;28;20034;-65
2021/12/03 07:18:13;;;;;;;23.42;8.95;;;18.70;99.90;;;;;;4992738;28;20068;-65
2021/12/03 07:20:41;;;;;;;25.58;8.93;;;18.70;99.90;;;;;;4992930;28;20042;-65
2021/12/03 07:23:09;;;;;;;26.77;8.38;;;18.80;99.90;;;;;;4992614;28;20030;-65
2021/12/03 07:25:36;;;;;;;22.52;8.52;;;18.90;99.90;;;;;;4984852;28;20110;-66
2021/12/03 07:28:07;;;;;;;20.02;7.65;;;18.70;99.90;;;;;;4989633;28;20479;-66
2021/12/03 07:30:35;;;;;;;21.25;7.38;;;18.60;99.90;;;;;;4993087;28;20026;-65
2021/12/03 07:33:03;;;;;;;22.20;7.18;;;18.50;99.90;;;;;;4992179;28;20019;-65
2021/12/03 07:35:30;;;;;;;26.13;7.72;;;18.40;99.90;;;;;;4994419;28;20022;-65
2021/12/03 07:37:58;;;;;;;32.47;8.65;;;18.60;99.90;;;;;;4996776;28;20022;-65
2021/12/03 07:40:26;;;;;;;16.05;6.80;;;18.50;99.90;;;;;;4996652;28;20526;-65
2021/12/03 07:42:53;;;;;;;30.63;8.40;;;18.50;99.90;;;;;;4995947;28;20399;-65
2021/12/03 07:45:21;;;;;;;28.92;7.70;;;18.40;99.90;;;;;;4996339;28;20038;-64
2021/12/03 07:47:49;;;;;;;31.67;7.78;;;18.40;99.90;;;;;;4995400;28;20026;-65
2021/12/03 07:50:16;;;;;;;18.02;8.15;;;18.40;99.90;;;;;;4996410;28;20066;-65
2021/12/03 07:52:44;;;;;;;22.10;8.13;;;18.30;99.90;;;;;;4993332;28;20495;-65
2021/12/03 07:55:12;;;;;;;16.60;7.47;;;18.20;99.90;;;;;;4988959;28;20030;-64
2021/12/03 07:57:40;;;;;;;19.23;6.97;;;18.20;99.90;;;;;;4994250;28;20022;-64
2021/12/03 08:00:09;;;;;;;20.25;8.30;;;18.20;99.90;;;;;;4993379;28;20081;-64
2021/12/03 08:02:36;;;;;;;18.25;6.93;;;18.20;99.90;;;;;;4996188;28;20042;-64
2021/12/03 08:05:05;;;;;;;20.08;7.85;;;18.20;99.90;;;;;;4995341;28;20118;-64
2021/12/03 08:07:32;;;;;;;15.85;7.43;;;18.20;99.90;;;;;;4995521;28;20422;-64
2021/12/03 08:10:00;;;;;;;20.17;7.22;;;18.20;99.90;;;;;;4995352;28;20038;-64
2021/12/03 08:12:28;;;;;;;18.30;6.90;;;18.20;99.90;;;;;;4993222;28;20102;-64
2021/12/03 08:14:55;;;;;;;17.30;7.00;;;18.10;99.90;;;;;;4995401;28;20022;-64
2021/12/03 08:17:23;;;;;;;21.58;7.88;;;18.10;99.90;;;;;;4995359;28;20034;-64
2021/12/03 08:19:51;;;;;;;27.08;8.18;;;18.10;99.90;;;;;;4995345;28;20045;-64
2021/12/03 08:22:20;;;;;;;19.17;7.00;;;18.10;99.90;;;;;;4995274;28;20053;-65
2021/12/03 08:24:48;;;;;;;17.00;7.25;;;18.10;99.90;;;;;;4992796;28;20467;-64
2021/12/03 08:27:16;;;;;;;12.70;6.82;;;18.00;99.90;;;;;;4995259;28;20543;-64
2021/12/03 08:29:44;;;;;;;27.40;6.22;;;18.00;99.90;;;;;;4994573;28;20399;-64
2021/12/03 08:32:11;;;;;;;32.67;7.35;;;18.00;99.90;;;;;;4994946;28;20030;-63
2021/12/03 08:34:39;;;;;;;16.88;7.03;;;18.00;99.90;;;;;;4994787;28;20053;-64
2021/12/03 08:37:08;;;;;;;17.27;6.75;;;17.90;99.90;;;;;;4994750;28;20400;-64
2021/12/03 08:39:37;;;;;;;13.63;6.63;;;17.90;99.90;;;;;;4994833;28;20030;-64
2021/12/03 08:42:08;;;;;;;18.60;7.60;;;17.90;99.90;;;;;;4994184;28;20722;-64
2021/12/03 08:44:36;;;;;;;16.92;6.95;;;17.90;99.90;;;;;;4994153;28;20426;-65
2021/12/03 08:47:05;;;;;;;16.85;8.07;;;17.90;99.90;;;;;;4989970;28;20034;-66
2021/12/03 08:49:45;;;;;;;23.92;6.50;;;17.90;99.90;;;;;;4992314;28;20066;-64
2021/12/03 08:52:36;;;;;;;19.65;6.88;;;17.80;99.90;;;;;;4989999;28;20573;-64
2021/12/03 08:55:04;;;;;;;19.05;6.70;;;17.80;99.90;;;;;;4992677;28;20030;-65
2021/12/03 08:57:35;;;;;;;18.77;6.57;;;17.80;99.90;;;;;;4992645;28;20061;-64
2021/12/03 09:00:14;;;;;;;13.18;6.60;;;17.80;99.90;;;;;;4992284;28;20030;-64
2021/12/03 09:02:43;;;;;;;24.42;7.65;;;17.80;99.90;;;;;;4992763;28;20121;-65
2021/12/03 09:05:11;;;;;;;17.90;7.60;;;17.80;99.90;;;;;;4993085;28;20085;-66
2021/12/03 09:07:40;;;;;;;18.45;7.13;;;17.80;99.90;;;;;;4992136;28;20596;-66
2021/12/03 09:10:13;;;;;;;25.58;7.47;;;17.80;99.90;;;;;;4991371;28;20048;-65
2021/12/03 09:12:42;;;;;;;24.23;6.95;;;17.70;99.90;;;;;;4991333;28;20073;-66
2021/12/03 09:15:13;;;;;;;17.38;5.68;;;17.70;99.90;;;;;;4993375;28;20405;-66
2021/12/03 09:17:57;;;;;;;13.52;5.13;;;17.70;99.90;;;;;;4994141;28;20046;-65
2021/12/03 09:22:58;;;;;;;12.45;5.40;;;17.60;99.90;;;;;;4992591;28;20088;-65
2021/12/03 09:25:33;;;;;;;13.88;6.47;;;17.50;99.90;;;;;;4992786;28;20407;-66
2021/12/03 09:28:03;;;;;;;14.65;5.60;;;17.60;99.90;;;;;;4990998;28;20061;-65
2021/12/03 09:30:40;;;;;;;15.68;5.43;;;17.60;99.90;;;;;;4993818;28;20514;-65
2021/12/03 09:33:12;;;;;;;13.00;5.60;;;17.50;99.90;;;;;;4994337;28;20026;-65
2021/12/03 09:35:50;;;;;;;15.63;5.88;;;17.50;99.90;;;;;;4995210;28;20475;-65
2021/12/03 09:38:17;;;;;;;12.20;6.03;;;17.50;99.90;;;;;;4995179;28;20105;-66
2021/12/03 09:40:46;;;;;;;20.40;6.80;;;17.50;99.90;;;;;;4995050;28;20018;-65
2021/12/03 09:43:15;;;;;;;14.32;6.90;;;17.50;99.90;;;;;;4994969;28;20031;-66
2021/12/03 09:45:56;;;;;;;13.55;7.10;;;17.50;99.90;;;;;;4995025;28;20038;-65
2021/12/03 09:48:46;;;;;;;14.18;6.65;;;17.50;99.90;;;;;;4993641;28;20038;-65
2021/12/03 09:51:14;;;;;;;15.75;7.05;;;17.60;99.90;;;;;;4993980;28;20089;-65
2021/12/03 09:56:29;;;;;;;17.13;7.80;;;17.50;99.90;;;;;;4995242;28;20085;-66
2021/12/03 10:01:51;;;;;;;12.68;5.32;;;17.40;99.90;;;;;;4994765;28;20081;-65
2021/12/03 10:11:05;;;;;;;18.63;6.55;;;17.30;99.90;;;;;;4990469;28;20076;-66
2021/12/03 10:12:55;;;;;;;24.25;6.32;;;17.30;99.90;;;;;;4994102;28;20058;-66
2021/12/03 10:15:37;;;;;;;16.33;5.53;;;17.20;99.90;;;;;;4993959;28;20034;-65
2021/12/03 10:18:21;;;;;;;23.20;6.43;;;17.10;99.90;;;;;;4993945;28;20034;-66
2021/12/03 10:21:05;;;;;;;16.33;5.85;;;17.20;99.90;;;;;;4994352;28;20026;-66
2021/12/03 10:29:32;;;;;;;25.65;6.70;;;17.20;99.90;;;;;;4993838;28;20053;-65
2021/12/03 10:35:17;;;;;;;20.92;6.55;;;17.10;99.90;;;;;;4994159;28;20490;-65
2021/12/03 10:41:28;;;;;;;20.15;7.45;;;17.10;99.90;;;;;;4993382;28;20502;-66
2021/12/03 10:48:51;;;;;;;20.23;7.70;;;17.10;99.90;;;;;;4992461;28;20018;-65
2021/12/03 10:51:35;;;;;;;19.40;6.88;;;17.10;99.90;;;;;;4991994;28;20030;-66
2021/12/03 10:54:11;;;;;;;17.95;7.18;;;17.10;99.90;;;;;;4992014;28;20027;-65
2021/12/03 11:02:33;;;;;;;21.70;7.03;;;17.20;99.90;;;;;;4991060;28;20616;-65
2021/12/03 12:16:56;;;;;;;33.90;7.53;;;17.10;99.90;;;;;;4981465;28;20034;-64
2021/12/03 12:25:09;;;;;;;28.23;8.60;;;17.10;99.90;;;;;;4997072;28;20471;-65
2021/12/03 12:42:50;;;;;;;25.90;6.07;;;17.10;99.90;;;;;;4996408;28;20057;-63
2021/12/03 13:10:37;;;;;;;15.40;5.43;;;17.20;99.90;;;;;;4996115;28;20089;-64
2021/12/03 13:45:26;;;;;;;18.52;4.47;;;17.10;99.90;;;;;;4995568;28;20489;-64
2021/12/03 14:06:14;;;;;;;22.30;5.05;;;17.10;99.90;;;;;;4995351;28;20089;-65
2021/12/03 14:30:05;;;;;;;16.17;4.55;;;17.20;99.90;;;;;;4995256;28;20077;-64
2021/12/03 14:39:25;;;;;;;16.15;3.95;;;17.20;99.90;;;;;;4994395;28;20144;-64
2021/12/03 14:44:39;;;;;;;22.17;5.03;;;17.20;99.90;;;;;;4993656;28;20034;-64
2021/12/03 14:54:09;;;;;;;18.85;4.10;;;17.10;99.90;;;;;;4994137;28;19913;-64
2021/12/03 14:56:00;;;;;;;16.63;4.45;;;17.10;99.90;;;;;;4997659;28;20038;-64
2021/12/03 15:07:06;;;;;;;14.68;4.07;;;17.10;99.90;;;;;;5003386;28;20058;-64
2021/12/03 15:09:38;;;;;;;19.02;4.07;;;17.10;99.90;;;;;;4993910;28;20030;-64
2021/12/03 15:20:24;;;;;;;15.52;4.68;;;17.10;99.90;;;;;;4994051;28;20023;-64
2021/12/03 15:30:56;;;;;;;17.88;3.88;;;17.20;99.90;;;;;;4993853;28;20034;-64
2021/12/03 15:33:36;;;;;;;16.33;4.38;;;17.20;99.90;;;;;;4993801;28;20102;-64
2021/12/03 15:36:12;;;;;;;16.30;3.78;;;17.10;99.90;;;;;;4994400;28;20035;-64
2021/12/03 15:52:03;;;;;;;14.10;3.65;;;17.00;99.90;;;;;;4994205;28;20061;-64
2021/12/03 16:08:32;;;;;;;16.23;3.80;;;17.00;99.90;;;;;;4997183;28;20034;-64
2021/12/03 16:19:14;;;;;;;16.88;3.63;;;16.90;99.90;;;;;;4996973;28;20023;-65
2021/12/03 16:24:49;;;;;;;20.58;3.22;;;16.90;99.90;;;;;;4996887;28;20072;-64
2021/12/03 16:44:02;;;;;;;16.92;4.97;;;16.90;99.90;;;;;;4996531;28;20034;-65
2021/12/03 16:46:46;;;;;;;18.20;4.00;;;16.80;99.90;;;;;;4996516;28;20606;-64
2021/12/03 16:52:01;;;;;;;22.55;5.03;;;16.80;99.90;;;;;;4996848;28;20061;-65
2021/12/03 16:54:36;;;;;;;32.05;4.60;;;16.80;99.90;;;;;;4996252;28;20031;-64
2021/12/03 16:57:07;;;;;;;30.33;6.43;;;16.70;99.90;;;;;;4996280;28;20030;-64
2021/12/03 16:59:34;;;;;;;31.42;6.30;;;16.70;99.90;;;;;;4996241;28;20441;-64
2021/12/03 17:02:08;;;;;;;29.55;6.53;;;16.80;99.90;;;;;;4995781;28;20061;-64
2021/12/03 17:12:32;;;;;;;31.05;6.75;;;16.70;99.90;;;;;;4995878;28;20056;-64
2021/12/03 17:29:17;;;;;;;26.25;5.88;;;16.70;99.90;;;;;;4974895;28;20042;-64
2021/12/03 17:50:39;;;;;;;41.45;6.30;;;16.70;99.90;;;;;;4995362;28;20494;-64
2021/12/03 18:00:56;;;;;;;28.50;5.90;;;16.70;99.90;;;;;;4994617;28;20451;-64
2021/12/03 18:43:20;;;;;;;27.52;6.53;;;16.70;99.90;;;;;;4994999;28;20494;-64
2021/12/03 18:47:22;;;;;;;29.13;6.60;;;16.70;99.90;;;;;;4993818;28;20034;-65
2021/12/03 18:52:54;;;;;;;30.48;5.50;;;16.60;99.90;;;;;;4988785;28;20064;-65
2021/12/03 18:55:37;;;;;;;27.10;5.22;;;16.70;99.90;;;;;;4991104;28;20057;-65
2021/12/03 18:58:09;;;;;;;27.33;5.40;;;16.70;99.90;;;;;;4993491;28;20076;-64
2021/12/03 19:00:41;;;;;;;26.15;5.80;;;16.70;99.90;;;;;;4993313;28;20499;-64
2021/12/03 19:06:21;;;;;;;28.52;6.25;;;16.70;99.90;;;;;;4986143;28;20026;-64
2021/12/03 19:08:52;;;;;;;38.97;7.07;;;16.80;99.90;;;;;;4991727;28;20514;-64
2021/12/03 19:11:33;;;;;;;18.30;4.47;;;16.70;99.90;;;;;;4996975;28;20149;-64
2021/12/03 19:14:01;;;;;;;21.10;5.28;;;16.70;99.90;;;;;;5012907;28;20032;-67
2021/12/03 19:16:29;;;;;;;21.05;5.30;;;16.70;99.90;;;;;;5013477;28;20033;-65
2021/12/03 19:18:59;;;;;;;26.38;5.80;;;16.70;99.90;;;;;;5007501;28;20057;-64
2021/12/03 19:21:32;;;;;;;29.38;6.30;;;16.80;99.90;;;;;;4993609;28;20034;-65
2021/12/03 19:24:02;;;;;;;19.27;5.30;;;16.80;99.90;;;;;;4993498;28;20031;-64
2021/12/03 19:26:32;;;;;;;28.85;5.18;;;16.80;99.90;;;;;;4993046;28;20027;-64
2021/12/03 19:29:01;;;;;;;24.10;5.50;;;16.80;99.90;;;;;;4993428;28;20027;-64
2021/12/03 19:31:30;;;;;;;31.83;5.65;;;16.80;99.90;;;;;;4991440;28;20034;-63
2021/12/03 19:33:58;;;;;;;30.73;5.57;;;16.80;99.90;;;;;;4996466;28;20022;-63
2021/12/03 19:36:27;;;;;;;24.23;4.40;;;16.80;99.90;;;;;;4997112;28;20031;-64
2021/12/03 19:38:56;;;;;;;34.40;6.70;;;16.80;99.90;;;;;;4997533;28;20384;-63
2021/12/03 19:44:11;;;;;;;34.45;5.15;;;16.80;99.90;;;;;;4997711;28;20049;-63
2021/12/03 19:46:44;;;;;;;26.02;4.13;;;16.80;99.90;;;;;;4996826;28;20034;-64
2021/12/03 19:51:53;;;;;;;28.42;5.28;;;16.80;99.90;;;;;;4993531;28;20384;-63
2021/12/03 19:54:22;;;;;;;23.08;4.97;;;16.80;99.90;;;;;;4993714;28;20033;-64
2021/12/03 19:56:50;;;;;;;25.65;6.43;;;16.80;99.90;;;;;;4993832;28;20038;-62